Pagina principală
METAR-TAF:

METAR-TAF

Aeroporturi :

Vavaʻu, Tonga

Latitudine: 18-35-07S, longitudine: 173-57-42W, elevație: 72 m

Observații meteo curente

Raportul a fost făcut în urmă cu 35 de minute, la 12:00 UTC
Vânt 2 kt din direcții variabile
Temperatură 23°C
Umiditate 94%
Presiune 1011 hPa
Vizibilitate de 10 km sau mai mult
Nori puțini la o înălțime de 2000 picior

METAR: NFTV 281200Z VRB02KT 9999 FEW020 23/22 Q1011

Ora: 01:35 (12:35 UTC)

Prognoză

Raportul a fost făcut în urmă cu 1 oră și 13 de minute, la 11:22 UTC
Prognoză valabilă de la 28 ora 12 UTC la 29 ora 12 UTC
Vânt 6 kt de la Sud
Vizibilitate de 10 km sau mai mult
Nori puțini la o înălțime de 2000 picior
Probabilitate 30% :
Temporar
de la 28 ora 12 UTC la 29 ora 06 UTC
Vânt 15 kt de la Sud cu rafale de până la 25 kt

TAF: NFTV 281122Z 2812/2912 18006KT 9999 FEW020 PROB30 TEMPO 2812/2906 18015G25KT

Observații și prognoze meteo pentru peste 4.000 de aeroporturi (rapoarte METAR și TAF).

Stațiile disponibile sunt reprezentate pe hartă prin puncte galbene și roșii.

Țineți indicatorul mouse-ului pe punctul dorit pentru a vedea denumirea stației.

Apoi, faceți clic pentru a vedea observațiile și prognozele meteorologice.

Pentru a schimba harta: Pentru mărire, faceți clic pe butoanele verzi cu cruce neagră; pentru micșorare, pe butonul verde cu o liniuță; pentru hărți învecinate, pe săgețile verzi.


METAR-TAF: